sensor_id;sensor_type;location;lat;lon;timestamp;pressure;altitude;pressure_sealevel;temperature;humidity
59650;BME280;46162;57.568;25.814;2023-05-23T00:00:21;101094.75;;;8.47;100.00
59650;BME280;46162;57.568;25.814;2023-05-23T00:02:49;101095.59;;;8.47;100.00
59650;BME280;46162;57.568;25.814;2023-05-23T00:05:19;101088.16;;;8.39;100.00
59650;BME280;46162;57.568;25.814;2023-05-23T00:07:48;101088.53;;;8.46;100.00
59650;BME280;46162;57.568;25.814;2023-05-23T00:10:16;101091.53;;;8.53;100.00
59650;BME280;46162;57.568;25.814;2023-05-23T00:12:45;101089.84;;;8.52;100.00
59650;BME280;46162;57.568;25.814;2023-05-23T00:15:14;101095.84;;;8.76;100.00
59650;BME280;46162;57.568;25.814;2023-05-23T00:17:44;101088.53;;;8.67;100.00
59650;BME280;46162;57.568;25.814;2023-05-23T00:20:13;101091.13;;;8.69;100.00
59650;BME280;46162;57.568;25.814;2023-05-23T00:22:42;101086.03;;;8.54;100.00
59650;BME280;46162;57.568;25.814;2023-05-23T00:25:10;101086.69;;;8.35;100.00
59650;BME280;46162;57.568;25.814;2023-05-23T00:27:39;101086.47;;;8.27;100.00
59650;BME280;46162;57.568;25.814;2023-05-23T00:30:08;101088.00;;;8.09;100.00
59650;BME280;46162;57.568;25.814;2023-05-23T00:32:37;101087.38;;;8.16;100.00
59650;BME280;46162;57.568;25.814;2023-05-23T00:35:08;101094.34;;;8.08;100.00
59650;BME280;46162;57.568;25.814;2023-05-23T00:37:37;101090.28;;;8.13;100.00
59650;BME280;46162;57.568;25.814;2023-05-23T00:40:07;101100.66;;;8.18;100.00
59650;BME280;46162;57.568;25.814;2023-05-23T00:42:36;101096.16;;;8.18;100.00
59650;BME280;46162;57.568;25.814;2023-05-23T00:45:06;101100.63;;;8.40;100.00
59650;BME280;46162;57.568;25.814;2023-05-23T00:47:35;101084.72;;;8.37;100.00
59650;BME280;46162;57.568;25.814;2023-05-23T00:50:04;101095.59;;;8.47;100.00
59650;BME280;46162;57.568;25.814;2023-05-23T00:52:35;101085.47;;;8.28;100.00
59650;BME280;46162;57.568;25.814;2023-05-23T00:55:05;101094.81;;;8.24;100.00
59650;BME280;46162;57.568;25.814;2023-05-23T00:57:34;101090.88;;;8.39;100.00
59650;BME280;46162;57.568;25.814;2023-05-23T01:00:07;101087.53;;;8.04;100.00
59650;BME280;46162;57.568;25.814;2023-05-23T01:02:41;101090.28;;;8.25;100.00
59650;BME280;46162;57.568;25.814;2023-05-23T01:05:12;101083.75;;;8.38;100.00
59650;BME280;46162;57.568;25.814;2023-05-23T01:07:45;101084.56;;;8.50;100.00
59650;BME280;46162;57.568;25.814;2023-05-23T01:10:15;101095.75;;;8.46;100.00
59650;BME280;46162;57.568;25.814;2023-05-23T01:12:53;101093.47;;;8.62;100.00
59650;BME280;46162;57.568;25.814;2023-05-23T01:15:28;101091.94;;;8.48;100.00
59650;BME280;46162;57.568;25.814;2023-05-23T01:18:01;101092.75;;;8.16;100.00
59650;BME280;46162;57.568;25.814;2023-05-23T01:20:38;101099.34;;;8.24;100.00
59650;BME280;46162;57.568;25.814;2023-05-23T01:23:34;101092.56;;;8.40;100.00
59650;BME280;46162;57.568;25.814;2023-05-23T01:26:16;101097.38;;;8.14;100.00
59650;BME280;46162;57.568;25.814;2023-05-23T01:28:50;101093.91;;;7.91;100.00
59650;BME280;46162;57.568;25.814;2023-05-23T01:31:21;101104.53;;;7.82;100.00
59650;BME280;46162;57.568;25.814;2023-05-23T01:33:52;101092.44;;;7.76;100.00
59650;BME280;46162;57.568;25.814;2023-05-23T01:36:21;101094.41;;;7.74;100.00
59650;BME280;46162;57.568;25.814;2023-05-23T01:38:51;101096.84;;;7.66;100.00
59650;BME280;46162;57.568;25.814;2023-05-23T01:41:19;101086.34;;;7.63;100.00
59650;BME280;46162;57.568;25.814;2023-05-23T01:43:49;101088.91;;;7.42;100.00
59650;BME280;46162;57.568;25.814;2023-05-23T01:46:19;101085.38;;;7.75;100.00
59650;BME280;46162;57.568;25.814;2023-05-23T01:48:48;101086.84;;;7.79;100.00
59650;BME280;46162;57.568;25.814;2023-05-23T01:51:18;101079.47;;;7.92;100.00
59650;BME280;46162;57.568;25.814;2023-05-23T01:53:48;101082.91;;;7.94;100.00
59650;BME280;46162;57.568;25.814;2023-05-23T01:56:19;101084.84;;;8.04;100.00
59650;BME280;46162;57.568;25.814;2023-05-23T01:58:51;101080.22;;;7.61;100.00
59650;BME280;46162;57.568;25.814;2023-05-23T02:01:20;101087.81;;;7.67;100.00
59650;BME280;46162;57.568;25.814;2023-05-23T02:03:50;101078.75;;;7.57;100.00
59650;BME280;46162;57.568;25.814;2023-05-23T02:06:19;101080.22;;;7.27;100.00
59650;BME280;46162;57.568;25.814;2023-05-23T02:08:48;101082.53;;;7.31;100.00
59650;BME280;46162;57.568;25.814;2023-05-23T02:11:17;101088.28;;;7.27;100.00
59650;BME280;46162;57.568;25.814;2023-05-23T02:13:45;101079.88;;;7.31;100.00
59650;BME280;46162;57.568;25.814;2023-05-23T02:16:15;101087.06;;;7.20;100.00
59650;BME280;46162;57.568;25.814;2023-05-23T02:18:44;101085.84;;;7.13;100.00
59650;BME280;46162;57.568;25.814;2023-05-23T02:21:13;101093.75;;;7.03;100.00
59650;BME280;46162;57.568;25.814;2023-05-23T02:23:41;101092.66;;;7.05;100.00
59650;BME280;46162;57.568;25.814;2023-05-23T02:26:10;101087.16;;;6.96;100.00
59650;BME280;46162;57.568;25.814;2023-05-23T02:28:39;101087.50;;;6.91;100.00
59650;BME280;46162;57.568;25.814;2023-05-23T02:31:07;101102.75;;;6.91;100.00
59650;BME280;46162;57.568;25.814;2023-05-23T02:33:37;101097.41;;;7.02;100.00
59650;BME280;46162;57.568;25.814;2023-05-23T02:36:06;101107.44;;;7.00;100.00
59650;BME280;46162;57.568;25.814;2023-05-23T02:38:35;101089.03;;;7.18;100.00
59650;BME280;46162;57.568;25.814;2023-05-23T02:41:04;101095.63;;;7.47;100.00
59650;BME280;46162;57.568;25.814;2023-05-23T02:43:32;101088.66;;;7.56;100.00
59650;BME280;46162;57.568;25.814;2023-05-23T02:46:02;101096.72;;;7.67;100.00
59650;BME280;46162;57.568;25.814;2023-05-23T02:48:31;101097.56;;;7.90;100.00
59650;BME280;46162;57.568;25.814;2023-05-23T02:51:02;101096.06;;;7.97;100.00
59650;BME280;46162;57.568;25.814;2023-05-23T02:53:31;101089.84;;;7.97;100.00
59650;BME280;46162;57.568;25.814;2023-05-23T02:56:00;101084.75;;;7.83;100.00
59650;BME280;46162;57.568;25.814;2023-05-23T02:58:28;101094.00;;;7.79;100.00
59650;BME280;46162;57.568;25.814;2023-05-23T03:00:57;101089.63;;;7.66;100.00
59650;BME280;46162;57.568;25.814;2023-05-23T03:03:27;101097.81;;;7.87;100.00
59650;BME280;46162;57.568;25.814;2023-05-23T03:05:57;101092.81;;;7.83;100.00
59650;BME280;46162;57.568;25.814;2023-05-23T03:08:28;101094.09;;;8.11;100.00
59650;BME280;46162;57.568;25.814;2023-05-23T03:10:56;101090.91;;;8.17;100.00
59650;BME280;46162;57.568;25.814;2023-05-23T03:13:25;101087.69;;;8.23;100.00
59650;BME280;46162;57.568;25.814;2023-05-23T03:15:54;101084.31;;;8.21;100.00
59650;BME280;46162;57.568;25.814;2023-05-23T03:18:23;101085.09;;;8.44;100.00
59650;BME280;46162;57.568;25.814;2023-05-23T03:20:52;101091.81;;;8.38;100.00
59650;BME280;46162;57.568;25.814;2023-05-23T03:23:22;101084.91;;;8.57;100.00
59650;BME280;46162;57.568;25.814;2023-05-23T03:25:52;101090.56;;;8.75;100.00
59650;BME280;46162;57.568;25.814;2023-05-23T03:28:21;101084.50;;;8.94;100.00
59650;BME280;46162;57.568;25.814;2023-05-23T03:30:50;101091.63;;;9.04;100.00
59650;BME280;46162;57.568;25.814;2023-05-23T03:33:19;101089.00;;;9.14;100.00
59650;BME280;46162;57.568;25.814;2023-05-23T03:35:48;101088.78;;;9.27;100.00
59650;BME280;46162;57.568;25.814;2023-05-23T03:38:17;101097.84;;;9.47;100.00
59650;BME280;46162;57.568;25.814;2023-05-23T03:40:46;101090.69;;;9.67;100.00
59650;BME280;46162;57.568;25.814;2023-05-23T03:43:16;101089.56;;;9.69;100.00
59650;BME280;46162;57.568;25.814;2023-05-23T03:45:45;101087.78;;;9.89;100.00
59650;BME280;46162;57.568;25.814;2023-05-23T03:48:16;101093.31;;;9.88;100.00
59650;BME280;46162;57.568;25.814;2023-05-23T03:50:46;101088.50;;;10.01;100.00
59650;BME280;46162;57.568;25.814;2023-05-23T03:53:15;101090.22;;;10.02;100.00
59650;BME280;46162;57.568;25.814;2023-05-23T03:55:44;101089.09;;;10.05;100.00
59650;BME280;46162;57.568;25.814;2023-05-23T03:58:13;101079.78;;;10.28;100.00
59650;BME280;46162;57.568;25.814;2023-05-23T04:00:45;101086.31;;;10.45;100.00
59650;BME280;46162;57.568;25.814;2023-05-23T04:03:15;101084.78;;;10.52;100.00
59650;BME280;46162;57.568;25.814;2023-05-23T04:05:45;101086.75;;;10.60;100.00
59650;BME280;46162;57.568;25.814;2023-05-23T04:08:14;101082.63;;;10.75;100.00
59650;BME280;46162;57.568;25.814;2023-05-23T04:10:43;101082.19;;;10.80;100.00
59650;BME280;46162;57.568;25.814;2023-05-23T04:13:12;101084.88;;;11.00;100.00
59650;BME280;46162;57.568;25.814;2023-05-23T04:15:41;101080.00;;;11.23;100.00
59650;BME280;46162;57.568;25.814;2023-05-23T04:18:13;101091.63;;;11.43;100.00
59650;BME280;46162;57.568;25.814;2023-05-23T04:20:43;101090.19;;;11.38;100.00
59650;BME280;46162;57.568;25.814;2023-05-23T04:23:13;101087.59;;;11.47;100.00
59650;BME280;46162;57.568;25.814;2023-05-23T04:25:45;101085.88;;;11.55;100.00
59650;BME280;46162;57.568;25.814;2023-05-23T04:28:21;101081.41;;;11.64;100.00
59650;BME280;46162;57.568;25.814;2023-05-23T04:30:49;101088.94;;;11.70;100.00
59650;BME280;46162;57.568;25.814;2023-05-23T04:33:24;101091.44;;;11.81;100.00
59650;BME280;46162;57.568;25.814;2023-05-23T04:35:54;101088.00;;;11.89;100.00
59650;BME280;46162;57.568;25.814;2023-05-23T04:38:23;101088.25;;;11.96;100.00
59650;BME280;46162;57.568;25.814;2023-05-23T04:40:54;101084.66;;;12.23;100.00
59650;BME280;46162;57.568;25.814;2023-05-23T04:43:44;101096.28;;;12.33;100.00
59650;BME280;46162;57.568;25.814;2023-05-23T04:46:36;101080.03;;;12.51;100.00
59650;BME280;46162;57.568;25.814;2023-05-23T04:49:36;101083.28;;;12.73;100.00
59650;BME280;46162;57.568;25.814;2023-05-23T04:52:07;101082.66;;;12.79;100.00
59650;BME280;46162;57.568;25.814;2023-05-23T04:54:39;101073.56;;;12.88;100.00
59650;BME280;46162;57.568;25.814;2023-05-23T04:57:11;101077.53;;;12.94;100.00
59650;BME280;46162;57.568;25.814;2023-05-23T04:59:40;101076.75;;;13.01;100.00
59650;BME280;46162;57.568;25.814;2023-05-23T05:02:09;101076.84;;;13.18;100.00
59650;BME280;46162;57.568;25.814;2023-05-23T05:04:39;101080.34;;;13.28;100.00
59650;BME280;46162;57.568;25.814;2023-05-23T05:07:08;101074.16;;;13.44;100.00
59650;BME280;46162;57.568;25.814;2023-05-23T05:09:38;101070.00;;;13.58;100.00
59650;BME280;46162;57.568;25.814;2023-05-23T05:12:09;101069.19;;;13.65;100.00
59650;BME280;46162;57.568;25.814;2023-05-23T05:14:38;101062.91;;;13.65;100.00
59650;BME280;46162;57.568;25.814;2023-05-23T05:17:07;101066.34;;;13.75;100.00
59650;BME280;46162;57.568;25.814;2023-05-23T05:19:47;101070.78;;;13.84;100.00
59650;BME280;46162;57.568;25.814;2023-05-23T05:22:16;101071.19;;;13.97;100.00
59650;BME280;46162;57.568;25.814;2023-05-23T05:24:45;101070.50;;;13.95;100.00
59650;BME280;46162;57.568;25.814;2023-05-23T05:27:14;101076.81;;;14.12;100.00
59650;BME280;46162;57.568;25.814;2023-05-23T05:29:43;101078.72;;;14.20;100.00
59650;BME280;46162;57.568;25.814;2023-05-23T05:32:11;101080.09;;;14.32;100.00
59650;BME280;46162;57.568;25.814;2023-05-23T05:34:40;101077.91;;;14.44;100.00
59650;BME280;46162;57.568;25.814;2023-05-23T05:37:11;101074.22;;;14.61;100.00
59650;BME280;46162;57.568;25.814;2023-05-23T05:39:41;101073.03;;;14.72;100.00
59650;BME280;46162;57.568;25.814;2023-05-23T05:42:10;101066.91;;;14.78;100.00
59650;BME280;46162;57.568;25.814;2023-05-23T05:44:39;101071.84;;;14.91;100.00
59650;BME280;46162;57.568;25.814;2023-05-23T05:47:08;101061.44;;;15.03;100.00
59650;BME280;46162;57.568;25.814;2023-05-23T05:49:36;101063.66;;;15.08;100.00
59650;BME280;46162;57.568;25.814;2023-05-23T05:52:06;101061.78;;;15.16;100.00
59650;BME280;46162;57.568;25.814;2023-05-23T05:54:36;101059.22;;;15.31;100.00
59650;BME280;46162;57.568;25.814;2023-05-23T05:57:05;101061.91;;;15.39;100.00
59650;BME280;46162;57.568;25.814;2023-05-23T05:59:34;101057.13;;;15.41;100.00
59650;BME280;46162;57.568;25.814;2023-05-23T06:02:03;101055.22;;;15.58;100.00
59650;BME280;46162;57.568;25.814;2023-05-23T06:04:32;101065.22;;;15.58;100.00
59650;BME280;46162;57.568;25.814;2023-05-23T06:07:00;101060.34;;;15.53;100.00
59650;BME280;46162;57.568;25.814;2023-05-23T06:09:29;101059.59;;;15.76;100.00
59650;BME280;46162;57.568;25.814;2023-05-23T06:11:59;101061.91;;;15.95;100.00
59650;BME280;46162;57.568;25.814;2023-05-23T06:14:29;101064.72;;;16.02;100.00
59650;BME280;46162;57.568;25.814;2023-05-23T06:16:58;101055.34;;;16.12;100.00
59650;BME280;46162;57.568;25.814;2023-05-23T06:19:27;101066.66;;;16.24;100.00
59650;BME280;46162;57.568;25.814;2023-05-23T06:21:56;101060.56;;;16.45;100.00
59650;BME280;46162;57.568;25.814;2023-05-23T06:24:25;101069.56;;;16.23;100.00
59650;BME280;46162;57.568;25.814;2023-05-23T06:26:53;101057.00;;;16.45;100.00
59650;BME280;46162;57.568;25.814;2023-05-23T06:29:25;101054.63;;;16.65;100.00
59650;BME280;46162;57.568;25.814;2023-05-23T06:31:54;101052.91;;;16.64;100.00
59650;BME280;46162;57.568;25.814;2023-05-23T06:34:23;101058.06;;;16.59;100.00
59650;BME280;46162;57.568;25.814;2023-05-23T06:36:52;101058.31;;;16.49;100.00
59650;BME280;46162;57.568;25.814;2023-05-23T06:39:21;101050.78;;;16.74;100.00
59650;BME280;46162;57.568;25.814;2023-05-23T06:41:50;101049.28;;;16.94;100.00
59650;BME280;46162;57.568;25.814;2023-05-23T06:44:18;101042.34;;;17.07;100.00
59650;BME280;46162;57.568;25.814;2023-05-23T06:46:54;101046.22;;;17.27;100.00
59650;BME280;46162;57.568;25.814;2023-05-23T06:49:25;101039.81;;;17.50;100.00
59650;BME280;46162;57.568;25.814;2023-05-23T06:51:55;101039.53;;;17.59;100.00
59650;BME280;46162;57.568;25.814;2023-05-23T06:54:24;101043.19;;;17.07;100.00
59650;BME280;46162;57.568;25.814;2023-05-23T06:56:53;101038.88;;;17.42;100.00
59650;BME280;46162;57.568;25.814;2023-05-23T06:59:22;101035.41;;;17.63;100.00
59650;BME280;46162;57.568;25.814;2023-05-23T07:01:51;101033.78;;;17.69;100.00
59650;BME280;46162;57.568;25.814;2023-05-23T07:04:23;101038.19;;;18.00;100.00
59650;BME280;46162;57.568;25.814;2023-05-23T07:06:53;101044.22;;;18.10;100.00
59650;BME280;46162;57.568;25.814;2023-05-23T07:09:22;101039.72;;;18.24;100.00
59650;BME280;46162;57.568;25.814;2023-05-23T07:11:58;101036.75;;;18.40;100.00
59650;BME280;46162;57.568;25.814;2023-05-23T07:14:28;101037.34;;;18.57;100.00
59650;BME280;46162;57.568;25.814;2023-05-23T07:16:56;101035.47;;;18.79;100.00
59650;BME280;46162;57.568;25.814;2023-05-23T07:19:27;101032.09;;;18.84;100.00
59650;BME280;46162;57.568;25.814;2023-05-23T07:21:56;101029.53;;;18.76;100.00
59650;BME280;46162;57.568;25.814;2023-05-23T07:24:25;101042.63;;;19.08;100.00
59650;BME280;46162;57.568;25.814;2023-05-23T07:26:55;101030.88;;;19.15;100.00
59650;BME280;46162;57.568;25.814;2023-05-23T07:29:25;101025.31;;;19.36;100.00
59650;BME280;46162;57.568;25.814;2023-05-23T07:31:54;101026.63;;;19.40;100.00
59650;BME280;46162;57.568;25.814;2023-05-23T07:34:23;101027.81;;;19.66;100.00
59650;BME280;46162;57.568;25.814;2023-05-23T07:36:57;101024.34;;;19.44;100.00
59650;BME280;46162;57.568;25.814;2023-05-23T07:39:30;101023.09;;;19.53;100.00
59650;BME280;46162;57.568;25.814;2023-05-23T07:42:00;101025.59;;;19.76;100.00
59650;BME280;46162;57.568;25.814;2023-05-23T07:44:29;101021.53;;;19.72;100.00
59650;BME280;46162;57.568;25.814;2023-05-23T07:46:58;101017.25;;;19.56;100.00
59650;BME280;46162;57.568;25.814;2023-05-23T07:49:27;101013.66;;;19.62;100.00
59650;BME280;46162;57.568;25.814;2023-05-23T07:51:57;101016.75;;;19.87;100.00
59650;BME280;46162;57.568;25.814;2023-05-23T07:54:25;101014.84;;;19.88;100.00
59650;BME280;46162;57.568;25.814;2023-05-23T07:56:57;101008.81;;;20.06;100.00
59650;BME280;46162;57.568;25.814;2023-05-23T07:59:27;101005.41;;;19.97;100.00
59650;BME280;46162;57.568;25.814;2023-05-23T08:01:57;100999.34;;;20.22;92.97
59650;BME280;46162;57.568;25.814;2023-05-23T08:04:27;101000.84;;;20.31;100.00
59650;BME280;46162;57.568;25.814;2023-05-23T08:06:57;100993.22;;;20.19;100.00
59650;BME280;46162;57.568;25.814;2023-05-23T08:09:58;100994.28;;;20.12;100.00
59650;BME280;46162;57.568;25.814;2023-05-23T08:12:26;101003.56;;;20.11;98.71
59650;BME280;46162;57.568;25.814;2023-05-23T08:15:09;100988.59;;;20.13;98.47
59650;BME280;46162;57.568;25.814;2023-05-23T08:17:49;100994.28;;;20.12;100.00
59650;BME280;46162;57.568;25.814;2023-05-23T08:20:23;100990.88;;;20.10;100.00
59650;BME280;46162;57.568;25.814;2023-05-23T08:23:00;100989.81;;;19.97;97.81
59650;BME280;46162;57.568;25.814;2023-05-23T08:25:29;100989.78;;;19.84;97.72
59650;BME280;46162;57.568;25.814;2023-05-23T08:27:59;100985.38;;;19.96;94.22
59650;BME280;46162;57.568;25.814;2023-05-23T08:30:49;100987.25;;;19.89;100.00
59650;BME280;46162;57.568;25.814;2023-05-23T08:33:18;100987.72;;;19.58;100.00
59650;BME280;46162;57.568;25.814;2023-05-23T08:35:48;101001.78;;;19.48;100.00
59650;BME280;46162;57.568;25.814;2023-05-23T08:38:19;100992.09;;;19.39;100.00
59650;BME280;46162;57.568;25.814;2023-05-23T08:41:12;100997.19;;;19.14;100.00
59650;BME280;46162;57.568;25.814;2023-05-23T08:43:43;101004.72;;;19.05;100.00
59650;BME280;46162;57.568;25.814;2023-05-23T08:46:18;101012.59;;;18.87;100.00
59650;BME280;46162;57.568;25.814;2023-05-23T08:48:52;101020.78;;;18.87;100.00
59650;BME280;46162;57.568;25.814;2023-05-23T08:51:25;101029.13;;;18.57;100.00
59650;BME280;46162;57.568;25.814;2023-05-23T08:53:59;101022.47;;;17.87;100.00
59650;BME280;46162;57.568;25.814;2023-05-23T08:56:29;101021.16;;;17.98;100.00
59650;BME280;46162;57.568;25.814;2023-05-23T08:58:58;101017.63;;;18.04;100.00
59650;BME280;46162;57.568;25.814;2023-05-23T09:01:27;101010.22;;;17.98;100.00
59650;BME280;46162;57.568;25.814;2023-05-23T09:03:59;101020.31;;;17.82;100.00
59650;BME280;46162;57.568;25.814;2023-05-23T09:06:49;101021.47;;;17.44;100.00
59650;BME280;46162;57.568;25.814;2023-05-23T09:09:20;101023.00;;;17.31;100.00
59650;BME280;46162;57.568;25.814;2023-05-23T09:11:49;101025.78;;;17.08;100.00
59650;BME280;46162;57.568;25.814;2023-05-23T09:14:18;101024.25;;;16.68;100.00
59650;BME280;46162;57.568;25.814;2023-05-23T09:16:49;101025.59;;;16.26;100.00
59650;BME280;46162;57.568;25.814;2023-05-23T09:19:21;101022.53;;;16.52;100.00
59650;BME280;46162;57.568;25.814;2023-05-23T09:21:56;101022.34;;;16.53;100.00
59650;BME280;46162;57.568;25.814;2023-05-23T09:24:35;101029.63;;;16.38;100.00
59650;BME280;46162;57.568;25.814;2023-05-23T09:27:07;101030.00;;;16.27;100.00
59650;BME280;46162;57.568;25.814;2023-05-23T09:29:37;101023.63;;;16.20;100.00
59650;BME280;46162;57.568;25.814;2023-05-23T09:32:11;101026.34;;;16.20;100.00
59650;BME280;46162;57.568;25.814;2023-05-23T09:34:40;101029.38;;;16.25;100.00
59650;BME280;46162;57.568;25.814;2023-05-23T09:37:13;101028.78;;;16.06;100.00
59650;BME280;46162;57.568;25.814;2023-05-23T09:39:47;101020.94;;;16.11;100.00
59650;BME280;46162;57.568;25.814;2023-05-23T09:42:20;101015.38;;;16.28;100.00
59650;BME280;46162;57.568;25.814;2023-05-23T09:44:49;101016.34;;;16.35;100.00
59650;BME280;46162;57.568;25.814;2023-05-23T09:47:18;101022.78;;;16.42;100.00
59650;BME280;46162;57.568;25.814;2023-05-23T09:49:47;101011.28;;;16.32;100.00
59650;BME280;46162;57.568;25.814;2023-05-23T09:52:17;101014.59;;;16.42;100.00
59650;BME280;46162;57.568;25.814;2023-05-23T09:54:48;101012.66;;;16.51;100.00
59650;BME280;46162;57.568;25.814;2023-05-23T09:57:18;101016.63;;;16.63;100.00
59650;BME280;46162;57.568;25.814;2023-05-23T09:59:52;101010.31;;;16.86;100.00
59650;BME280;46162;57.568;25.814;2023-05-23T10:05:34;101015.75;;;17.38;100.00
59650;BME280;46162;57.568;25.814;2023-05-23T10:08:07;101016.66;;;17.46;100.00
59650;BME280;46162;57.568;25.814;2023-05-23T10:13:49;101017.78;;;17.66;100.00
59650;BME280;46162;57.568;25.814;2023-05-23T10:16:22;101019.84;;;17.79;100.00
59650;BME280;46162;57.568;25.814;2023-05-23T10:18:57;101020.97;;;17.84;100.00
59650;BME280;46162;57.568;25.814;2023-05-23T10:21:29;101018.44;;;17.98;100.00
59650;BME280;46162;57.568;25.814;2023-05-23T10:24:03;101023.41;;;17.94;100.00
59650;BME280;46162;57.568;25.814;2023-05-23T10:26:34;101023.31;;;17.88;100.00
59650;BME280;46162;57.568;25.814;2023-05-23T10:29:05;101024.66;;;17.92;100.00
59650;BME280;46162;57.568;25.814;2023-05-23T10:31:33;101022.88;;;17.69;100.00
59650;BME280;46162;57.568;25.814;2023-05-23T10:34:09;101024.47;;;17.78;100.00
59650;BME280;46162;57.568;25.814;2023-05-23T10:36:47;101025.88;;;17.74;100.00
59650;BME280;46162;57.568;25.814;2023-05-23T10:39:29;101022.88;;;17.69;100.00
59650;BME280;46162;57.568;25.814;2023-05-23T10:42:07;101029.75;;;17.80;100.00
59650;BME280;46162;57.568;25.814;2023-05-23T10:44:39;101019.75;;;17.72;100.00
59650;BME280;46162;57.568;25.814;2023-05-23T10:47:07;101017.38;;;17.99;100.00
59650;BME280;46162;57.568;25.814;2023-05-23T10:49:37;101019.13;;;18.07;100.00
59650;BME280;46162;57.568;25.814;2023-05-23T10:52:06;101012.72;;;18.14;100.00
59650;BME280;46162;57.568;25.814;2023-05-23T10:54:35;101018.19;;;18.36;100.00
59650;BME280;46162;57.568;25.814;2023-05-23T10:57:06;101019.28;;;18.41;100.00
59650;BME280;46162;57.568;25.814;2023-05-23T10:59:36;101012.09;;;18.62;100.00
59650;BME280;46162;57.568;25.814;2023-05-23T11:02:11;101015.25;;;18.80;100.00
59650;BME280;46162;57.568;25.814;2023-05-23T11:04:42;101010.63;;;18.81;100.00
59650;BME280;46162;57.568;25.814;2023-05-23T11:07:29;101010.53;;;18.96;100.00
59650;BME280;46162;57.568;25.814;2023-05-23T11:10:08;101008.44;;;18.98;100.00
59650;BME280;46162;57.568;25.814;2023-05-23T11:12:39;101002.09;;;19.25;100.00
59650;BME280;46162;57.568;25.814;2023-05-23T11:15:21;101004.47;;;19.70;100.00
59650;BME280;46162;57.568;25.814;2023-05-23T11:17:50;100998.66;;;20.00;100.00
59650;BME280;46162;57.568;25.814;2023-05-23T11:20:20;101001.22;;;20.14;100.00
59650;BME280;46162;57.568;25.814;2023-05-23T11:22:58;101005.44;;;20.04;98.57
59650;BME280;46162;57.568;25.814;2023-05-23T11:25:40;101003.13;;;20.07;100.00
59650;BME280;46162;57.568;25.814;2023-05-23T11:28:11;101001.19;;;19.94;100.00
59650;BME280;46162;57.568;25.814;2023-05-23T11:30:40;100992.75;;;20.03;100.00
59650;BME280;46162;57.568;25.814;2023-05-23T11:33:10;100992.59;;;20.11;100.00
59650;BME280;46162;57.568;25.814;2023-05-23T11:35:41;100994.28;;;20.18;100.00
59650;BME280;46162;57.568;25.814;2023-05-23T11:38:10;100999.97;;;20.17;100.00
59650;BME280;46162;57.568;25.814;2023-05-23T11:40:40;100994.91;;;20.14;100.00
59650;BME280;46162;57.568;25.814;2023-05-23T11:43:12;100994.47;;;20.04;100.00
59650;BME280;46162;57.568;25.814;2023-05-23T11:45:41;100996.63;;;20.28;100.00
59650;BME280;46162;57.568;25.814;2023-05-23T11:48:11;100996.84;;;20.33;100.00
59650;BME280;46162;57.568;25.814;2023-05-23T11:50:44;100992.63;;;20.24;100.00
59650;BME280;46162;57.568;25.814;2023-05-23T11:53:13;100994.53;;;20.44;100.00
59650;BME280;46162;57.568;25.814;2023-05-23T11:55:50;100991.59;;;20.45;87.50
59650;BME280;46162;57.568;25.814;2023-05-23T11:58:26;100992.06;;;20.55;100.00
59650;BME280;46162;57.568;25.814;2023-05-23T12:00:58;100993.69;;;20.50;100.00
59650;BME280;46162;57.568;25.814;2023-05-23T12:03:27;100991.38;;;20.47;100.00
59650;BME280;46162;57.568;25.814;2023-05-23T12:05:57;100998.53;;;20.34;100.00
59650;BME280;46162;57.568;25.814;2023-05-23T12:08:27;100994.53;;;20.30;100.00
59650;BME280;46162;57.568;25.814;2023-05-23T12:10:57;100994.50;;;20.17;100.00
59650;BME280;46162;57.568;25.814;2023-05-23T12:13:28;100990.84;;;19.90;100.00
59650;BME280;46162;57.568;25.814;2023-05-23T12:15:59;100992.38;;;20.06;100.00
59650;BME280;46162;57.568;25.814;2023-05-23T12:18:30;100989.59;;;19.92;100.00
59650;BME280;46162;57.568;25.814;2023-05-23T12:20:59;100989.16;;;19.89;100.00
59650;BME280;46162;57.568;25.814;2023-05-23T12:23:29;100994.47;;;20.04;100.00
59650;BME280;46162;57.568;25.814;2023-05-23T12:26:03;100984.72;;;19.88;100.00
59650;BME280;46162;57.568;25.814;2023-05-23T12:28:35;100982.59;;;19.76;100.00
59650;BME280;46162;57.568;25.814;2023-05-23T12:31:09;100978.44;;;19.52;100.00
59650;BME280;46162;57.568;25.814;2023-05-23T12:33:38;100980.47;;;19.72;100.00
59650;BME280;46162;57.568;25.814;2023-05-23T12:36:10;100977.00;;;19.57;100.00
59650;BME280;46162;57.568;25.814;2023-05-23T12:38:39;100985.34;;;19.42;100.00
59650;BME280;46162;57.568;25.814;2023-05-23T12:41:14;100976.13;;;19.49;100.00
59650;BME280;46162;57.568;25.814;2023-05-23T12:43:50;100982.44;;;19.50;100.00
59650;BME280;46162;57.568;25.814;2023-05-23T12:46:20;100971.38;;;19.30;100.00
59650;BME280;46162;57.568;25.814;2023-05-23T12:48:49;100966.34;;;19.33;100.00
59650;BME280;46162;57.568;25.814;2023-05-23T12:51:18;100969.72;;;19.36;100.00
59650;BME280;46162;57.568;25.814;2023-05-23T12:53:47;100979.66;;;19.37;100.00
59650;BME280;46162;57.568;25.814;2023-05-23T12:56:16;100981.09;;;19.32;100.00
59650;BME280;46162;57.568;25.814;2023-05-23T12:58:44;100977.50;;;19.32;100.00